FJDG

Diego Garcia NSF Airport

Camp Justice, British Indian Ocean Territory
METAR FJDG 212355Z 32006KT 9999 FEW018 FEW050 BKN090 26/24 A2977 RMK SLP078 8/870 T02590244 10261 20258 56003
Observed Flight Rules
Feb-21 @ 23:55 UTC (5 hours ago) Visual Flight Rules
Wind Visibility Clouds
320° at 6 knots 10,000+ meters
  • Few at 1,800' AGL
  • Few at 5,000' AGL
  • Broken at 9,000' AGL
Temperatures Readings
Current 26°C / 79°F
Dewpoint 24°C / 75°F
Humidity 89%
Altimeter 29.77" Hg
Pressure 1007.8 hPa
Elevation 3
METAR FJDG 212355Z 32006KT 9999 FEW018 FEW050 BKN090 26/24 A2977 RMK SLP078 8/870 T02590244 10261 20258 56003
Observed Flight Rules
Feb-21 @ 23:55 UTC
(5 hours ago)
VFR
Wind Visibility
320° at 6 knots 10,000+ meters
Clouds
  • Few at 1,800' AGL
  • Few at 5,000' AGL
  • Broken at 9,000' AGL
Temperature Dewpoint
26°C / 79°F 24°C / 75°F
Humidity Altimeter Pressure
89% 29.77" Hg 1007.8 hPa